Time;durP1;ratioP1;P1;durP2;ratioP2;P2;SDS_P1;SDS_P2;PMS_P1;PMS_P2;Temp;Humidity;BMP_temperature;BMP_pressure;BME280_temperature;BME280_humidity;BME280_pressure;Samples;Min_cycle;Max_cycle;Signal;HPM_P1;HPM_P2
2022/10/27 00:00:30;;;;;;;;;;;15.20;99.90;;;;;;5047505;28;19925;-69
2022/10/27 00:02:56;;;;;;;;;;;15.20;99.90;;;;;;5040731;28;19925;-69
2022/10/27 00:05:23;;;;;;;;;;;15.10;99.90;;;;;;5032663;28;20028;-69
2022/10/27 00:07:50;;;;;;;;;;;15.00;99.90;;;;;;5035094;28;19934;-69
2022/10/27 00:10:18;;;;;;;;;;;15.10;99.90;;;;;;5041242;28;19933;-69
2022/10/27 00:12:45;;;;;;;;;;;15.00;99.90;;;;;;5049452;28;19929;-70
2022/10/27 00:15:12;;;;;;;;;;;15.10;99.90;;;;;;5035666;28;19929;-70
2022/10/27 00:17:38;;;;;;;;;;;15.00;99.90;;;;;;5032425;28;19925;-70
2022/10/27 00:20:06;;;;;;;;;;;15.10;99.90;;;;;;5044753;28;19928;-69
2022/10/27 00:22:32;;;;;;;;;;;15.10;99.90;;;;;;5039698;28;19931;-70
2022/10/27 00:24:59;;;;;;;;;;;15.00;99.90;;;;;;5042098;28;19931;-70
2022/10/27 00:27:27;;;;;;;;;;;14.90;99.90;;;;;;5037362;28;20013;-70
2022/10/27 00:29:54;;;;;;;;;;;14.90;99.90;;;;;;5032722;28;19971;-70
2022/10/27 00:32:20;;;;;;;;;;;14.90;99.90;;;;;;5034446;28;19931;-70
2022/10/27 00:34:47;;;;;;;;;;;14.90;99.90;;;;;;5050573;28;19931;-70
2022/10/27 00:37:14;;;;;;;;;;;15.00;99.90;;;;;;5038320;28;19925;-69
2022/10/27 00:39:40;;;;;;;;;;;15.00;99.90;;;;;;5031958;28;19955;-70
2022/10/27 00:42:09;;;;;;;;;;;15.00;99.90;;;;;;5032700;28;20379;-70
2022/10/27 00:44:37;;;;;;;;;;;15.00;99.90;;;;;;5032485;28;19925;-70
2022/10/27 00:47:07;;;;;;;;;;;15.00;99.90;;;;;;5032233;28;19925;-69
2022/10/27 00:49:35;;;;;;;;;;;14.90;99.90;;;;;;5032324;28;19925;-69
2022/10/27 00:52:03;;;;;;;;;;;14.90;99.90;;;;;;5032584;28;19932;-69
2022/10/27 00:54:33;;;;;;;;;;;14.70;99.90;;;;;;5032233;28;20300;-70
2022/10/27 00:57:00;;;;;;;;;;;14.60;99.90;;;;;;5032760;28;19925;-70
2022/10/27 00:59:26;;;;;;;;;;;14.50;99.90;;;;;;5042856;28;19931;-69
2022/10/27 01:01:55;;;;;;;;;;;14.50;99.90;;;;;;5052333;28;19925;-69
2022/10/27 01:04:32;;;;;;;;;;;14.40;99.90;;;;;;5037174;28;19932;-70
2022/10/27 01:06:59;;;;;;;;;;;14.30;99.90;;;;;;5044546;28;19925;-71
2022/10/27 01:09:26;;;;;;;;;;;14.20;99.90;;;;;;5043316;28;20001;-70
2022/10/27 01:11:53;;;;;;;;;;;14.20;99.90;;;;;;5040956;28;20032;-70
2022/10/27 01:14:19;;;;;;;;;;;14.20;99.90;;;;;;5048683;28;20007;-70
2022/10/27 01:16:50;;;;;;;;;;;14.10;99.90;;;;;;5052036;28;19925;-70
2022/10/27 01:19:29;;;;;;;;;;;14.00;99.90;;;;;;5047489;28;20012;-70
2022/10/27 01:22:01;;;;;;;;;;;14.00;99.90;;;;;;5035372;28;19951;-70
2022/10/27 01:24:41;;;;;;;;;;;13.90;99.90;;;;;;5035945;28;19931;-70
2022/10/27 01:27:12;;;;;;;;;;;13.90;99.90;;;;;;5021481;28;19925;-70
2022/10/27 01:29:50;;;;;;;;;;;13.80;99.90;;;;;;5051607;28;19931;-70
2022/10/27 01:32:24;;;;;;;;;;;13.80;99.90;;;;;;5040946;28;19931;-70
2022/10/27 01:34:56;;;;;;;;;;;13.70;99.90;;;;;;5043781;28;19925;-69
2022/10/27 01:37:25;;;;;;;;;;;13.70;99.90;;;;;;5039297;28;19932;-70
2022/10/27 01:39:56;;;;;;;;;;;13.60;99.90;;;;;;5036516;28;20304;-70
2022/10/27 01:42:25;;;;;;;;;;;13.50;99.90;;;;;;5041594;28;19924;-69
2022/10/27 01:44:54;;;;;;;;;;;13.50;99.90;;;;;;5054983;28;19925;-69
2022/10/27 01:47:22;;;;;;;;;;;13.50;99.90;;;;;;5051377;28;20440;-70
2022/10/27 01:49:51;;;;;;;;;;;13.50;99.90;;;;;;5025186;28;19925;-70
2022/10/27 01:52:37;;;;;;;;;;;13.50;99.90;;;;;;5035015;28;19932;-70
2022/10/27 01:55:04;;;;;;;;;;;13.40;99.90;;;;;;5035945;28;19948;-70
2022/10/27 01:57:35;;;;;;;;;;;13.30;99.90;;;;;;5040120;28;19925;-70
2022/10/27 02:00:03;;;;;;;;;;;13.40;99.90;;;;;;5053261;28;19931;-69
2022/10/27 02:02:35;;;;;;;;;;;13.30;99.90;;;;;;5028744;28;19924;-70
2022/10/27 02:05:04;;;;;;;;;;;13.20;99.90;;;;;;5041715;28;19932;-70
2022/10/27 02:07:35;;;;;;;;;;;13.20;99.90;;;;;;5034676;28;20407;-70
2022/10/27 02:10:05;;;;;;;;;;;13.30;99.90;;;;;;5034548;28;19925;-69
2022/10/27 02:12:33;;;;;;;;;;;13.20;99.90;;;;;;5027899;28;20289;-69
2022/10/27 02:15:01;;;;;;;;;;;13.20;99.90;;;;;;5034159;28;19931;-69
2022/10/27 02:17:31;;;;;;;;;;;13.10;99.90;;;;;;5034324;28;20032;-70
2022/10/27 02:19:59;;;;;;;;;;;13.10;99.90;;;;;;5053137;28;19929;-70
2022/10/27 02:22:28;;;;;;;;;;;13.10;99.90;;;;;;5035567;28;19925;-69
2022/10/27 02:24:54;;;;;;;;;;;13.10;99.90;;;;;;5035542;28;20024;-70
2022/10/27 02:27:26;;;;;;;;;;;13.10;99.90;;;;;;5040341;28;20458;-71
2022/10/27 02:29:57;;;;;;;;;;;13.00;99.90;;;;;;5034526;28;19925;-70
2022/10/27 02:32:24;;;;;;;;;;;13.00;99.90;;;;;;5040236;28;19925;-69
2022/10/27 02:34:51;;;;;;;;;;;12.90;99.90;;;;;;5036878;28;19932;-70
2022/10/27 02:37:21;;;;;;;;;;;12.90;99.90;;;;;;5038198;28;19936;-71
2022/10/27 02:39:47;;;;;;;;;;;12.90;99.90;;;;;;5053087;28;20375;-70
2022/10/27 02:42:14;;;;;;;;;;;12.90;99.90;;;;;;5051959;28;19925;-70
2022/10/27 02:44:40;;;;;;;;;;;12.90;99.90;;;;;;5034508;28;20394;-70
2022/10/27 02:47:07;;;;;;;;;;;12.90;99.90;;;;;;5042512;28;19929;-70
2022/10/27 02:49:34;;;;;;;;;;;13.00;99.90;;;;;;5037009;28;19925;-70
2022/10/27 02:52:03;;;;;;;;;;;13.00;99.90;;;;;;5048554;28;19978;-70
2022/10/27 02:54:31;;;;;;;;;;;13.00;99.90;;;;;;5054189;28;19931;-70
2022/10/27 02:56:58;;;;;;;;;;;13.00;99.90;;;;;;5038013;28;20427;-70
2022/10/27 02:59:25;;;;;;;;;;;13.00;99.90;;;;;;5039202;28;19925;-70
2022/10/27 03:01:51;;;;;;;;;;;12.90;99.90;;;;;;5045840;28;20007;-70
2022/10/27 03:04:18;;;;;;;;;;;12.90;99.90;;;;;;5035220;28;19936;-70
2022/10/27 03:06:45;;;;;;;;;;;12.80;99.90;;;;;;5035401;28;19956;-70
2022/10/27 03:09:11;;;;;;;;;;;12.90;99.90;;;;;;5033865;28;20011;-70
2022/10/27 03:11:39;;;;;;;;;;;12.90;99.90;;;;;;5036761;28;19933;-71
2022/10/27 03:14:06;;;;;;;;;;;12.80;99.90;;;;;;5036921;28;19925;-71
2022/10/27 03:16:32;;;;;;;;;;;12.80;99.90;;;;;;5037943;28;19931;-70
2022/10/27 03:18:59;;;;;;;;;;;12.70;99.90;;;;;;5047131;28;20012;-70
2022/10/27 03:21:26;;;;;;;;;;;12.70;99.90;;;;;;5042721;28;19925;-70
2022/10/27 03:23:52;;;;;;;;;;;12.60;99.90;;;;;;5053303;28;20630;-70
2022/10/27 03:26:19;;;;;;;;;;;12.60;99.90;;;;;;5048329;28;19925;-70
2022/10/27 03:28:47;;;;;;;;;;;12.60;99.90;;;;;;5047614;28;20397;-71
2022/10/27 03:31:14;;;;;;;;;;;12.60;99.90;;;;;;5042044;28;19925;-70
2022/10/27 03:33:40;;;;;;;;;;;12.50;99.90;;;;;;5037389;28;20384;-70
2022/10/27 03:36:07;;;;;;;;;;;12.50;99.90;;;;;;5034968;28;20016;-70
2022/10/27 03:38:34;;;;;;;;;;;12.50;99.90;;;;;;5044932;28;19931;-70
2022/10/27 03:41:00;;;;;;;;;;;12.50;99.90;;;;;;5051577;28;20566;-70
2022/10/27 03:43:27;;;;;;;;;;;12.50;99.90;;;;;;5052707;28;20390;-70
2022/10/27 03:45:55;;;;;;;;;;;12.40;99.90;;;;;;5051830;28;19924;-70
2022/10/27 03:48:22;;;;;;;;;;;12.40;99.90;;;;;;5036326;28;19925;-71
2022/10/27 03:50:50;;;;;;;;;;;12.40;99.90;;;;;;5034272;28;19926;-70
2022/10/27 03:53:17;;;;;;;;;;;12.30;99.90;;;;;;5035737;28;19924;-70
2022/10/27 03:55:44;;;;;;;;;;;12.30;99.90;;;;;;5034651;28;19932;-71
2022/10/27 03:58:12;;;;;;;;;;;12.20;99.90;;;;;;5040636;28;20012;-70
2022/10/27 04:00:39;;;;;;;;;;;12.20;99.90;;;;;;5035302;28;20391;-71
2022/10/27 04:03:07;;;;;;;;;;;12.20;99.90;;;;;;5042318;28;19925;-70
2022/10/27 04:05:34;;;;;;;;;;;12.10;99.90;;;;;;5035919;28;19925;-70
2022/10/27 04:08:00;;;;;;;;;;;12.10;99.90;;;;;;5052484;28;20008;-71
2022/10/27 04:10:27;;;;;;;;;;;12.00;99.90;;;;;;5039911;28;19987;-71
2022/10/27 04:12:55;;;;;;;;;;;12.00;99.90;;;;;;5032652;28;20016;-71
2022/10/27 04:15:22;;;;;;;;;;;12.00;99.90;;;;;;5032235;28;19925;-70
2022/10/27 04:17:52;;;;;;;;;;;12.00;99.90;;;;;;5039621;28;19931;-71
2022/10/27 04:20:20;;;;;;;;;;;12.00;99.90;;;;;;5038173;28;20308;-70
2022/10/27 04:22:48;;;;;;;;;;;12.00;99.90;;;;;;5026750;28;19944;-71
2022/10/27 04:25:15;;;;;;;;;;;12.00;99.90;;;;;;5037802;28;19925;-71
2022/10/27 04:27:42;;;;;;;;;;;12.00;99.90;;;;;;5051835;28;19931;-71
2022/10/27 04:30:09;;;;;;;;;;;11.90;99.90;;;;;;5049748;28;20287;-71
2022/10/27 04:32:35;;;;;;;;;;;11.90;99.90;;;;;;5018912;28;20419;-71
2022/10/27 04:35:02;;;;;;;;;;;11.80;99.90;;;;;;5030254;28;19931;-71
2022/10/27 04:37:30;;;;;;;;;;;11.80;99.90;;;;;;5031849;28;19925;-71
2022/10/27 04:39:57;;;;;;;;;;;11.70;99.90;;;;;;5042173;28;19924;-68
2022/10/27 04:42:23;;;;;;;;;;;11.70;99.90;;;;;;5041533;28;19925;-69
2022/10/27 04:44:50;;;;;;;;;;;11.70;99.90;;;;;;5034630;28;20291;-69
2022/10/27 04:47:16;;;;;;;;;;;11.70;99.90;;;;;;5033069;28;20675;-70
2022/10/27 04:49:43;;;;;;;;;;;11.70;99.90;;;;;;5052029;28;19932;-69
2022/10/27 04:52:10;;;;;;;;;;;11.70;99.90;;;;;;5047715;28;20028;-69
2022/10/27 04:54:38;;;;;;;;;;;11.70;99.90;;;;;;5032993;28;19925;-69
2022/10/27 04:57:04;;;;;;;;;;;11.80;99.90;;;;;;5046495;28;19932;-69
2022/10/27 04:59:31;;;;;;;;;;;11.90;99.90;;;;;;5043207;28;19925;-69
2022/10/27 05:01:58;;;;;;;;;;;11.80;99.90;;;;;;5045749;28;19925;-69
2022/10/27 05:04:24;;;;;;;;;;;11.80;99.90;;;;;;5041192;28;19929;-69
2022/10/27 05:06:51;;;;;;;;;;;11.80;99.90;;;;;;5036813;28;19925;-69
2022/10/27 05:09:17;;;;;;;;;;;11.80;99.90;;;;;;5046579;28;19931;-69
2022/10/27 05:11:45;;;;;;;;;;;11.70;99.90;;;;;;5043476;28;19924;-69
2022/10/27 05:14:12;;;;;;;;;;;11.70;99.90;;;;;;5031570;28;20368;-71
2022/10/27 05:16:39;;;;;;;;;;;11.60;99.90;;;;;;5037807;28;19924;-70
2022/10/27 05:19:05;;;;;;;;;;;11.60;99.90;;;;;;5031960;28;20336;-70
2022/10/27 05:21:32;;;;;;;;;;;11.50;99.90;;;;;;5039339;28;19935;-70
2022/10/27 05:23:59;;;;;;;;;;;11.60;99.90;;;;;;5029891;28;20439;-70
2022/10/27 05:26:26;;;;;;;;;;;11.50;99.90;;;;;;5025965;28;19987;-70
2022/10/27 05:28:54;;;;;;;;;;;11.70;99.90;;;;;;5025687;28;19926;-70
2022/10/27 05:31:20;;;;;;;;;;;11.80;99.90;;;;;;5030441;28;20015;-70
2022/10/27 05:33:47;;;;;;;;;;;12.00;99.90;;;;;;5031091;28;19932;-70
2022/10/27 05:36:13;;;;;;;;;;;12.40;99.90;;;;;;5031724;28;19943;-71
2022/10/27 05:38:41;;;;;;;;;;;12.80;99.90;;;;;;5033090;28;19925;-70
2022/10/27 05:41:08;;;;;;;;;;;12.80;99.90;;;;;;5029013;28;20016;-71
2022/10/27 05:43:35;;;;;;;;;;;12.80;99.90;;;;;;5036974;28;19925;-70
2022/10/27 05:46:03;;;;;;;;;;;12.90;99.90;;;;;;5030669;28;19925;-70
2022/10/27 05:48:29;;;;;;;;;;;12.90;99.90;;;;;;5032060;28;19933;-70
2022/10/27 05:50:56;;;;;;;;;;;12.90;99.90;;;;;;5042755;28;20335;-70
2022/10/27 05:53:23;;;;;;;;;;;13.00;99.90;;;;;;5034491;28;19925;-71
2022/10/27 05:55:52;;;;;;;;;;;13.10;99.90;;;;;;5032745;28;20036;-70
2022/10/27 05:58:19;;;;;;;;;;;13.20;99.90;;;;;;5034978;28;19925;-70
2022/10/27 06:00:45;;;;;;;;;;;13.30;99.90;;;;;;5049416;28;19979;-71
2022/10/27 06:03:17;;;;;;;;;;;13.40;99.90;;;;;;5031573;28;19929;-71
2022/10/27 06:05:44;;;;;;;;;;;13.60;99.90;;;;;;5035855;28;19933;-71
2022/10/27 06:08:10;;;;;;;;;;;13.70;99.90;;;;;;5036384;28;20015;-71
2022/10/27 06:10:37;;;;;;;;;;;14.00;99.90;;;;;;5040250;28;19983;-70
2022/10/27 06:13:04;;;;;;;;;;;14.10;99.90;;;;;;5038317;28;20047;-71
2022/10/27 06:15:31;;;;;;;;;;;14.20;99.90;;;;;;5036630;28;19925;-72
2022/10/27 06:17:58;;;;;;;;;;;14.30;99.90;;;;;;5035793;28;19939;-72
2022/10/27 06:20:26;;;;;;;;;;;14.50;99.90;;;;;;5036875;28;19960;-70
2022/10/27 06:22:53;;;;;;;;;;;14.60;99.90;;;;;;5040306;28;19968;-71
2022/10/27 06:25:20;;;;;;;;;;;14.70;99.90;;;;;;5042940;28;19925;-68
2022/10/27 06:27:46;;;;;;;;;;;14.80;99.90;;;;;;5032709;28;20040;-68
2022/10/27 06:30:13;;;;;;;;;;;14.80;99.90;;;;;;5032049;28;19925;-69
2022/10/27 06:32:40;;;;;;;;;;;14.80;99.90;;;;;;5033632;28;19935;-70
2022/10/27 06:35:08;;;;;;;;;;;14.90;99.90;;;;;;5033353;28;20380;-70
2022/10/27 06:37:39;;;;;;;;;;;14.90;99.90;;;;;;5044064;28;19937;-70
2022/10/27 06:40:06;;;;;;;;;;;15.10;99.90;;;;;;5041699;28;19932;-70
2022/10/27 06:42:34;;;;;;;;;;;15.10;99.90;;;;;;5034068;28;19925;-70
2022/10/27 06:45:01;;;;;;;;;;;15.10;99.90;;;;;;5033949;28;20015;-70
2022/10/27 06:47:27;;;;;;;;;;;15.00;99.90;;;;;;5043534;28;20039;-71
2022/10/27 06:49:54;;;;;;;;;;;15.00;99.90;;;;;;5040027;28;19926;-71
2022/10/27 06:52:21;;;;;;;;;;;15.10;99.90;;;;;;5032713;28;19971;-71
2022/10/27 06:54:49;;;;;;;;;;;15.10;99.90;;;;;;5037505;28;20248;-71
2022/10/27 06:57:16;;;;;;;;;;;15.30;99.90;;;;;;5049607;28;19978;-71
2022/10/27 06:59:42;;;;;;;;;;;15.40;99.90;;;;;;5043267;28;19964;-70
2022/10/27 07:02:10;;;;;;;;;;;15.50;99.90;;;;;;5045191;28;19933;-71
2022/10/27 07:04:36;;;;;;;;;;;15.50;99.90;;;;;;5032291;28;19925;-72
2022/10/27 07:07:03;;;;;;;;;;;15.60;99.90;;;;;;5033371;28;19931;-71
2022/10/27 07:09:29;;;;;;;;;;;15.60;99.90;;;;;;5041784;28;19935;-71
2022/10/27 07:11:58;;;;;;;;;;;15.70;99.90;;;;;;5040435;28;20003;-71
2022/10/27 07:14:24;;;;;;;;;;;15.80;99.90;;;;;;5045366;28;19932;-70
2022/10/27 07:16:51;;;;;;;;;;;15.80;99.90;;;;;;5033535;28;19929;-70
2022/10/27 07:19:17;;;;;;;;;;;15.80;99.90;;;;;;5046197;28;19925;-70
2022/10/27 07:21:44;;;;;;;;;;;15.90;99.90;;;;;;5033254;28;20012;-70
2022/10/27 07:24:11;;;;;;;;;;;16.00;99.90;;;;;;5034921;28;20296;-67
2022/10/27 07:26:37;;;;;;;;;;;16.00;99.90;;;;;;5047799;28;20455;-70
2022/10/27 07:29:05;;;;;;;;;;;16.00;99.90;;;;;;5047313;28;20294;-70
2022/10/27 07:31:32;;;;;;;;;;;16.10;99.90;;;;;;5038585;28;19925;-68
2022/10/27 07:33:59;;;;;;;;;;;16.20;99.90;;;;;;5041427;28;19931;-68
2022/10/27 07:36:25;;;;;;;;;;;16.20;99.90;;;;;;5040801;28;20013;-70
2022/10/27 07:38:52;;;;;;;;;;;16.30;99.90;;;;;;5032954;28;20012;-70
2022/10/27 07:41:20;;;;;;;;;;;16.40;99.90;;;;;;5033857;28;19931;-70
2022/10/27 07:43:47;;;;;;;;;;;16.50;99.90;;;;;;5034648;28;19964;-71
2022/10/27 07:46:15;;;;;;;;;;;16.60;99.90;;;;;;5032590;28;20344;-70
2022/10/27 07:48:42;;;;;;;;;;;16.70;99.90;;;;;;5048459;28;19931;-71
2022/10/27 07:51:09;;;;;;;;;;;16.80;99.90;;;;;;5045848;28;19925;-70
2022/10/27 07:53:35;;;;;;;;;;;17.00;99.90;;;;;;5036869;28;19980;-70
2022/10/27 07:56:02;;;;;;;;;;;17.10;99.90;;;;;;5037235;28;20011;-71
2022/10/27 07:58:29;;;;;;;;;;;17.50;99.90;;;;;;5050037;28;19947;-69
2022/10/27 08:00:57;;;;;;;;;;;18.40;99.90;;;;;;5034123;28;19925;-71
2022/10/27 08:03:27;;;;;;;;;;;19.10;99.90;;;;;;5045213;28;19929;-71
2022/10/27 08:05:54;;;;;;;;;;;18.90;99.90;;;;;;5033999;28;19925;-72
2022/10/27 08:08:20;;;;;;;;;;;18.70;99.90;;;;;;5037202;28;19929;-71
2022/10/27 08:10:48;;;;;;;;;;;18.70;99.90;;;;;;5032988;28;19925;-72
2022/10/27 08:13:15;;;;;;;;;;;18.60;99.90;;;;;;5036564;28;20443;-71
2022/10/27 08:15:42;;;;;;;;;;;18.50;99.90;;;;;;5031720;28;20024;-72
2022/10/27 08:18:09;;;;;;;;;;;18.50;99.90;;;;;;5032574;28;20023;-71
2022/10/27 08:20:39;;;;;;;;;;;18.50;99.90;;;;;;5031997;28;19933;-71
2022/10/27 08:23:06;;;;;;;;;;;18.40;99.90;;;;;;5032576;28;20007;-71
2022/10/27 08:25:33;;;;;;;;;;;18.60;99.90;;;;;;5041997;28;19931;-71
2022/10/27 08:27:59;;;;;;;;;;;18.80;99.90;;;;;;5030080;28;20404;-72
2022/10/27 08:30:27;;;;;;;;;;;19.20;99.90;;;;;;5036086;28;19994;-72
2022/10/27 08:32:55;;;;;;;;;;;19.40;99.90;;;;;;5051371;28;19925;-71
2022/10/27 08:35:22;;;;;;;;;;;19.40;99.90;;;;;;5032533;28;20300;-72
2022/10/27 08:37:50;;;;;;;;;;;19.40;99.90;;;;;;5045654;28;19932;-72
2022/10/27 08:40:17;;;;;;;;;;;19.50;99.90;;;;;;5039751;28;19925;-71
2022/10/27 08:42:47;;;;;;;;;;;19.70;99.90;;;;;;5032141;28;20295;-71
2022/10/27 08:45:16;;;;;;;;;;;19.80;99.90;;;;;;5032653;28;19925;-71
2022/10/27 08:47:43;;;;;;;;;;;19.70;99.90;;;;;;5031952;28;20024;-71
2022/10/27 08:50:12;;;;;;;;;;;19.90;99.90;;;;;;5030987;28;19925;-72
2022/10/27 08:52:40;;;;;;;;;;;20.20;99.90;;;;;;5035941;28;19931;-75
2022/10/27 08:55:18;;;;;;;;;;;20.80;99.90;;;;;;5033593;28;19932;-71
2022/10/27 08:57:48;;;;;;;;;;;21.40;99.90;;;;;;5031147;28;19947;-70
2022/10/27 09:00:15;;;;;;;;;;;21.50;99.30;;;;;;5037210;28;19925;-69
2022/10/27 09:02:50;;;;;;;;;;;22.20;96.90;;;;;;5031934;28;20008;-70
2022/10/27 09:05:22;;;;;;;;;;;22.30;95.20;;;;;;5034388;28;19925;-69
2022/10/27 09:07:53;;;;;;;;;;;22.70;94.00;;;;;;5048752;28;19944;-70
2022/10/27 09:10:30;;;;;;;;;;;23.20;90.20;;;;;;5046341;28;20028;-70
2022/10/27 09:13:03;;;;;;;;;;;23.30;88.00;;;;;;5028516;28;20012;-71
2022/10/27 09:15:36;;;;;;;;;;;23.20;86.70;;;;;;5044819;28;19925;-70
2022/10/27 09:18:06;;;;;;;;;;;22.60;90.70;;;;;;5049749;28;20294;-70
2022/10/27 09:20:36;;;;;;;;;;;22.00;99.10;;;;;;5032113;28;19925;-70
2022/10/27 09:23:04;;;;;;;;;;;21.20;99.50;;;;;;5046242;28;19925;-71
2022/10/27 09:25:33;;;;;;;;;;;20.70;99.90;;;;;;5036655;28;19933;-71
2022/10/27 09:27:59;;;;;;;;;;;20.50;99.90;;;;;;5030473;28;19932;-70
2022/10/27 09:30:32;;;;;;;;;;;20.40;99.90;;;;;;5035130;28;19925;-70
2022/10/27 09:32:58;;;;;;;;;;;20.30;99.90;;;;;;5035111;28;20380;-70
2022/10/27 09:35:27;;;;;;;;;;;20.40;99.90;;;;;;5033017;28;19925;-71
2022/10/27 09:37:55;;;;;;;;;;;20.50;99.90;;;;;;5042576;28;19987;-69
2022/10/27 09:40:22;;;;;;;;;;;20.40;99.90;;;;;;5042677;28;19928;-70
2022/10/27 09:42:52;;;;;;;;;;;20.30;99.90;;;;;;5037036;28;19932;-71
2022/10/27 09:45:20;;;;;;;;;;;20.30;99.90;;;;;;5035938;28;19925;-71
2022/10/27 09:47:49;;;;;;;;;;;20.30;99.90;;;;;;5041186;28;19925;-69
2022/10/27 09:50:18;;;;;;;;;;;20.30;99.90;;;;;;5043262;28;20288;-70
2022/10/27 09:52:45;;;;;;;;;;;20.30;99.90;;;;;;5049724;28;20362;-70
2022/10/27 09:55:12;;;;;;;;;;;20.30;99.90;;;;;;5047321;28;19936;-70
2022/10/27 09:57:40;;;;;;;;;;;20.30;99.90;;;;;;5035163;28;19925;-70
2022/10/27 10:00:09;;;;;;;;;;;20.30;99.90;;;;;;5038616;28;19925;-71
2022/10/27 10:02:37;;;;;;;;;;;20.20;99.90;;;;;;5051489;28;19925;-70
2022/10/27 10:05:05;;;;;;;;;;;20.30;99.90;;;;;;5049191;28;19925;-70
2022/10/27 10:07:34;;;;;;;;;;;20.40;99.90;;;;;;5040770;28;20020;-71
2022/10/27 10:10:01;;;;;;;;;;;20.50;99.90;;;;;;5033872;28;20012;-70
2022/10/27 10:12:28;;;;;;;;;;;20.60;99.90;;;;;;5034849;28;19925;-70
2022/10/27 10:15:09;;;;;;;;;;;20.70;99.90;;;;;;5037903;28;19925;-71
2022/10/27 10:17:38;;;;;;;;;;;20.70;99.90;;;;;;5033427;28;20011;-72
2022/10/27 10:20:06;;;;;;;;;;;20.60;99.90;;;;;;5033355;28;19925;-71
2022/10/27 10:22:34;;;;;;;;;;;20.60;99.90;;;;;;5036265;28;19933;-70
2022/10/27 10:25:04;;;;;;;;;;;20.60;99.90;;;;;;5037842;28;20468;-71
2022/10/27 10:27:32;;;;;;;;;;;20.60;99.90;;;;;;5040691;28;20339;-71
2022/10/27 10:30:01;;;;;;;;;;;20.60;99.90;;;;;;5033116;28;19929;-71
2022/10/27 10:32:29;;;;;;;;;;;20.70;99.90;;;;;;5029581;28;20360;-71
2022/10/27 10:34:59;;;;;;;;;;;20.80;99.90;;;;;;5030549;28;19925;-71
2022/10/27 10:37:33;;;;;;;;;;;20.90;99.90;;;;;;5032487;28;20391;-70
2022/10/27 10:40:09;;;;;;;;;;;21.00;99.90;;;;;;5034007;28;19925;-71
2022/10/27 10:42:36;;;;;;;;;;;20.90;99.90;;;;;;5030349;28;20477;-71
2022/10/27 10:45:09;;;;;;;;;;;21.00;99.90;;;;;;5034125;28;20008;-72
2022/10/27 10:47:37;;;;;;;;;;;21.00;99.90;;;;;;5034846;28;20376;-71
2022/10/27 10:50:11;;;;;;;;;;;21.00;99.90;;;;;;5034276;28;19925;-73
2022/10/27 10:52:38;;;;;;;;;;;21.00;99.90;;;;;;5034044;28;19932;-71
2022/10/27 10:55:06;;;;;;;;;;;21.10;99.90;;;;;;5034084;28;20016;-72
2022/10/27 10:57:35;;;;;;;;;;;21.20;99.90;;;;;;5035428;28;19956;-72
2022/10/27 11:00:03;;;;;;;;;;;21.30;99.90;;;;;;5054094;28;19943;-72
2022/10/27 11:02:31;;;;;;;;;;;21.60;99.90;;;;;;5053742;28;19929;-72
2022/10/27 11:04:58;;;;;;;;;;;21.80;99.70;;;;;;5054211;28;19925;-71
2022/10/27 11:07:29;;;;;;;;;;;21.90;98.70;;;;;;5053339;28;19925;-72
2022/10/27 11:09:58;;;;;;;;;;;21.90;98.50;;;;;;5026311;28;19925;-71
2022/10/27 11:12:28;;;;;;;;;;;21.90;98.20;;;;;;5033889;28;20294;-71
2022/10/27 11:14:55;;;;;;;;;;;22.10;98.20;;;;;;5032965;28;20303;-69
2022/10/27 11:17:24;;;;;;;;;;;22.30;97.60;;;;;;5032771;28;19933;-70
2022/10/27 11:19:51;;;;;;;;;;;22.60;97.10;;;;;;5052438;28;19944;-69
2022/10/27 11:22:20;;;;;;;;;;;22.70;96.70;;;;;;5053141;28;20023;-71
2022/10/27 11:24:51;;;;;;;;;;;22.90;96.30;;;;;;5053426;28;19931;-72
2022/10/27 11:27:19;;;;;;;;;;;23.10;95.70;;;;;;5052819;28;20310;-72
2022/10/27 11:29:49;;;;;;;;;;;23.00;95.00;;;;;;5033690;28;20013;-71
2022/10/27 11:32:20;;;;;;;;;;;22.80;95.30;;;;;;5032692;28;19931;-71
2022/10/27 11:34:50;;;;;;;;;;;22.60;95.50;;;;;;5032771;28;19931;-72
2022/10/27 11:37:21;;;;;;;;;;;22.40;96.10;;;;;;5035814;28;19925;-72
2022/10/27 11:39:53;;;;;;;;;;;22.30;96.50;;;;;;5050501;28;19925;-71
2022/10/27 11:42:26;;;;;;;;;;;22.20;96.00;;;;;;5052980;28;19925;-71
2022/10/27 11:44:58;;;;;;;;;;;22.20;96.30;;;;;;5052251;28;19929;-72
2022/10/27 11:47:29;;;;;;;;;;;22.20;96.30;;;;;;5053109;28;19931;-72
2022/10/27 11:49:59;;;;;;;;;;;22.30;96.70;;;;;;5033227;28;19948;-72
2022/10/27 11:52:29;;;;;;;;;;;22.20;96.80;;;;;;5034218;28;19956;-71
2022/10/27 11:54:58;;;;;;;;;;;22.30;96.60;;;;;;5012357;28;19932;-72
2022/10/27 11:57:34;;;;;;;;;;;22.20;96.80;;;;;;5022142;28;19929;-74
2022/10/27 12:00:06;;;;;;;;;;;22.20;97.30;;;;;;5024521;28;20020;-72
2022/10/27 12:02:51;;;;;;;;;;;22.40;97.10;;;;;;5030803;28;19959;-72
2022/10/27 12:05:20;;;;;;;;;;;22.40;97.30;;;;;;5031626;28;19925;-71
2022/10/27 12:07:51;;;;;;;;;;;22.50;97.50;;;;;;5031973;28;19936;-73
2022/10/27 12:10:25;;;;;;;;;;;22.50;97.70;;;;;;5052648;28;19967;-72
2022/10/27 12:12:57;;;;;;;;;;;22.50;97.90;;;;;;5050826;28;20221;-72
2022/10/27 12:15:26;;;;;;;;;;;22.50;98.40;;;;;;5052236;28;19974;-72
2022/10/27 12:17:55;;;;;;;;;;;22.40;99.00;;;;;;5049638;28;19925;-71
2022/10/27 12:20:24;;;;;;;;;;;22.40;99.30;;;;;;5032094;28;19931;-72
2022/10/27 12:22:55;;;;;;;;;;;22.30;99.90;;;;;;5032412;28;19925;-71
2022/10/27 12:25:28;;;;;;;;;;;22.40;99.90;;;;;;5032503;28;20031;-73
2022/10/27 12:27:57;;;;;;;;;;;22.50;99.90;;;;;;5034261;28;20015;-71
2022/10/27 12:30:24;;;;;;;;;;;22.50;99.90;;;;;;5052677;28;19974;-71
2022/10/27 12:32:53;;;;;;;;;;;22.50;99.90;;;;;;5051636;28;19925;-72
2022/10/27 12:35:23;;;;;;;;;;;22.60;99.90;;;;;;5052632;28;20338;-71
2022/10/27 12:37:53;;;;;;;;;;;22.60;99.50;;;;;;5050899;28;19925;-71
2022/10/27 12:40:24;;;;;;;;;;;22.50;99.50;;;;;;5032216;28;20468;-71
2022/10/27 12:42:55;;;;;;;;;;;22.50;99.20;;;;;;5032195;28;20535;-72
2022/10/27 12:45:29;;;;;;;;;;;22.50;98.70;;;;;;5032128;28;19950;-72
2022/10/27 12:48:01;;;;;;;;;;;22.60;97.90;;;;;;5033227;28;19926;-72
2022/10/27 12:50:31;;;;;;;;;;;22.50;97.90;;;;;;5051799;28;20364;-71
2022/10/27 12:53:01;;;;;;;;;;;22.50;97.10;;;;;;5051784;28;19925;-71
2022/10/27 12:55:37;;;;;;;;;;;22.40;97.10;;;;;;5053098;28;19924;-71
2022/10/27 12:58:08;;;;;;;;;;;22.30;97.40;;;;;;5052288;28;19935;-72
2022/10/27 13:00:40;;;;;;;;;;;22.30;97.30;;;;;;5016721;28;19932;-71
2022/10/27 13:03:25;;;;;;;;;;;22.30;97.20;;;;;;5016140;28;19925;-72
2022/10/27 13:06:01;;;;;;;;;;;22.40;97.20;;;;;;5016398;28;20392;-71
2022/10/27 13:08:52;;;;;;;;;;;22.50;97.20;;;;;;5037481;28;19925;-71
2022/10/27 13:11:28;;;;;;;;;;;22.60;97.10;;;;;;5043904;28;19932;-68
2022/10/27 13:14:15;;;;;;;;;;;22.50;97.00;;;;;;5035263;28;19931;-71
2022/10/27 13:16:47;;;;;;;;;;;22.50;97.00;;;;;;5035376;28;19936;-72
2022/10/27 13:19:27;;;;;;;;;;;22.40;97.10;;;;;;5035301;28;20572;-72
2022/10/27 13:22:01;;;;;;;;;;;22.30;97.10;;;;;;5049874;28;19979;-71
2022/10/27 13:24:30;;;;;;;;;;;22.40;97.00;;;;;;5054678;28;19947;-71
2022/10/27 13:27:00;;;;;;;;;;;22.50;97.10;;;;;;5054248;28;19924;-70
2022/10/27 13:29:33;;;;;;;;;;;22.50;96.80;;;;;;5055052;28;19931;-71
2022/10/27 13:32:17;;;;;;;;;;;22.50;97.20;;;;;;5039228;28;19928;-71
2022/10/27 13:35:18;;;;;;;;;;;22.30;97.10;;;;;;5034424;28;19929;-72
2022/10/27 13:37:47;;;;;;;;;;;22.20;97.00;;;;;;5034689;28;19926;-72
2022/10/27 13:40:34;;;;;;;;;;;22.30;97.10;;;;;;5037892;28;20019;-72
2022/10/27 13:43:15;;;;;;;;;;;22.30;96.70;;;;;;5055163;28;19929;-71
2022/10/27 13:45:50;;;;;;;;;;;22.20;97.10;;;;;;5054510;28;20036;-73
2022/10/27 13:48:41;;;;;;;;;;;22.30;97.30;;;;;;5055378;28;19931;-71
2022/10/27 13:51:26;;;;;;;;;;;22.30;97.10;;;;;;5023924;28;19925;-72
2022/10/27 13:53:53;;;;;;;;;;;22.20;97.30;;;;;;5034795;28;20031;-72
2022/10/27 13:56:43;;;;;;;;;;;22.10;97.60;;;;;;5046011;28;20015;-71
2022/10/27 13:59:14;;;;;;;;;;;22.10;98.00;;;;;;5033884;28;19925;-72
2022/10/27 14:01:45;;;;;;;;;;;22.10;98.20;;;;;;5037266;28;19931;-72
2022/10/27 14:04:29;;;;;;;;;;;22.10;98.30;;;;;;5035324;28;19929;-73
2022/10/27 14:07:00;;;;;;;;;;;22.10;98.70;;;;;;5030625;28;19932;-72
2022/10/27 14:09:30;;;;;;;;;;;22.00;98.60;;;;;;5040122;28;20210;-72
2022/10/27 14:11:59;;;;;;;;;;;21.90;98.70;;;;;;5029792;28;20012;-72
2022/10/27 14:14:28;;;;;;;;;;;21.90;99.30;;;;;;5032052;28;19933;-73
2022/10/27 14:16:57;;;;;;;;;;;21.80;99.10;;;;;;5034371;28;19925;-70
2022/10/27 14:19:25;;;;;;;;;;;21.80;99.10;;;;;;5033573;28;20382;-73
2022/10/27 14:21:53;;;;;;;;;;;21.80;99.30;;;;;;5032836;28;19925;-73
2022/10/27 14:24:22;;;;;;;;;;;21.70;99.90;;;;;;5040657;28;20064;-71
2022/10/27 14:26:49;;;;;;;;;;;21.80;99.90;;;;;;5029841;28;20023;-72